Time;durP1;ratioP1;P1;durP2;ratioP2;P2;SDS_P1;SDS_P2;PMS_P1;PMS_P2;Temp;Humidity;BMP_temperature;BMP_pressure;BME280_temperature;BME280_humidity;BME280_pressure;Samples;Min_cycle;Max_cycle;Signal;HPM_P1;HPM_P2
2020/12/10 00:00:53;;;;;;;10.77;9.70;;;5.70;47.00;;;;;;10276963;28;20227;-73
2020/12/10 00:05:55;;;;;;;9.13;8.30;;;5.70;46.90;;;;;;10285371;28;20254;-74
2020/12/10 00:10:58;;;;;;;10.03;9.10;;;5.70;46.90;;;;;;10280331;28;20764;-73
2020/12/10 00:16:01;;;;;;;10.17;9.17;;;5.70;46.90;;;;;;10281432;28;20240;-74
2020/12/10 00:21:03;;;;;;;9.97;8.97;;;5.70;47.00;;;;;;10286812;28;20307;-74
2020/12/10 00:26:06;;;;;;;10.33;9.33;;;5.70;46.80;;;;;;10288934;28;20232;-73
2020/12/10 00:31:08;;;;;;;10.77;9.77;;;5.70;46.90;;;;;;10284043;28;20250;-73
2020/12/10 00:36:13;;;;;;;10.73;9.73;;;5.60;46.90;;;;;;10280617;28;20237;-73
2020/12/10 00:41:16;;;;;;;11.10;10.00;;;5.60;47.10;;;;;;10277927;28;20273;-73
2020/12/10 00:46:18;;;;;;;11.87;10.77;;;5.70;47.00;;;;;;10281023;28;20310;-73
2020/12/10 00:51:21;;;;;;;12.03;10.87;;;5.70;47.00;;;;;;10273117;28;20236;-73
2020/12/10 00:56:24;;;;;;;12.13;10.87;;;5.60;46.90;;;;;;10275296;28;20261;-73
2020/12/10 01:01:26;;;;;;;11.17;10.07;;;5.60;47.10;;;;;;10265485;28;20278;-74
2020/12/10 01:06:29;;;;;;;12.37;11.17;;;5.60;47.10;;;;;;10270737;28;20648;-73
2020/12/10 01:11:32;;;;;;;12.63;11.50;;;5.60;47.10;;;;;;10268019;28;20595;-73
2020/12/10 01:16:35;;;;;;;11.80;10.67;;;5.60;47.20;;;;;;10277466;28;20234;-74
2020/12/10 01:21:37;;;;;;;11.03;10.03;;;5.60;47.10;;;;;;10286582;28;20260;-73
2020/12/10 01:26:43;;;;;;;10.67;9.67;;;5.70;47.20;;;;;;10274554;28;20242;-73
2020/12/10 01:31:47;;;;;;;11.97;10.87;;;5.70;47.40;;;;;;10269635;28;20227;-73
2020/12/10 01:36:49;;;;;;;11.43;10.37;;;5.70;47.30;;;;;;10277508;28;20666;-73
2020/12/10 01:41:52;;;;;;;11.70;10.60;;;5.80;47.20;;;;;;10272959;28;20242;-73
2020/12/10 01:46:54;;;;;;;11.57;10.47;;;5.80;47.20;;;;;;10272158;28;20224;-73
2020/12/10 01:51:57;;;;;;;11.37;10.23;;;5.80;47.00;;;;;;10286402;28;20239;-74
2020/12/10 01:57:00;;;;;;;11.00;10.00;;;5.80;46.90;;;;;;10279832;28;20225;-74
2020/12/10 02:02:02;;;;;;;11.50;10.40;;;5.80;47.10;;;;;;10283005;28;20234;-73
2020/12/10 02:07:06;;;;;;;12.10;10.87;;;5.90;47.10;;;;;;10277459;28;20243;-73
2020/12/10 02:12:09;;;;;;;12.67;11.47;;;5.90;47.00;;;;;;10284021;28;20238;-73
2020/12/10 02:17:11;;;;;;;13.43;12.13;;;5.90;47.00;;;;;;10278700;28;20744;-74
2020/12/10 02:22:14;;;;;;;13.73;12.33;;;5.90;47.00;;;;;;10284527;28;20239;-74
2020/12/10 02:27:17;;;;;;;12.57;11.33;;;5.90;47.00;;;;;;10290697;28;20243;-73
2020/12/10 02:32:19;;;;;;;13.33;11.93;;;5.90;47.00;;;;;;10288400;28;20323;-74
2020/12/10 02:37:21;;;;;;;14.27;12.77;;;5.90;46.80;;;;;;10287942;28;20696;-74
2020/12/10 02:42:24;;;;;;;14.03;12.63;;;5.90;46.90;;;;;;10291810;28;20254;-73
2020/12/10 02:47:26;;;;;;;13.73;12.23;;;5.90;47.00;;;;;;10282586;28;20811;-73
2020/12/10 02:52:29;;;;;;;15.90;13.80;;;5.90;46.90;;;;;;10275262;28;20239;-73
2020/12/10 02:57:32;;;;;;;17.20;15.17;;;5.90;46.90;;;;;;10279420;28;20224;-73
2020/12/10 03:02:34;;;;;;;17.63;15.40;;;5.90;46.90;;;;;;10290005;28;20238;-74
2020/12/10 03:07:37;;;;;;;17.90;15.97;;;5.90;46.90;;;;;;10274528;28;20244;-74
2020/12/10 03:12:40;;;;;;;17.40;15.60;;;5.90;46.80;;;;;;10275628;28;20228;-74
2020/12/10 03:17:42;;;;;;;18.10;16.17;;;5.90;46.70;;;;;;10273854;28;20228;-73
2020/12/10 03:22:44;;;;;;;19.20;17.10;;;5.90;46.70;;;;;;10282650;28;20231;-74
2020/12/10 03:27:47;;;;;;;19.70;16.33;;;5.90;46.70;;;;;;10269691;28;20238;-73
2020/12/10 03:32:49;;;;;;;15.87;14.20;;;5.90;46.60;;;;;;10272931;28;20230;-73
2020/12/10 03:37:52;;;;;;;19.03;16.83;;;5.90;46.70;;;;;;10270881;28;20882;-73
2020/12/10 03:42:55;;;;;;;18.17;15.30;;;5.90;46.70;;;;;;10279521;28;20224;-74
2020/12/10 03:47:57;;;;;;;18.07;16.13;;;5.90;46.80;;;;;;10291160;28;20307;-74
2020/12/10 03:52:59;;;;;;;20.50;16.93;;;5.90;46.80;;;;;;10284832;28;20224;-74
2020/12/10 03:58:02;;;;;;;19.00;16.27;;;5.90;46.90;;;;;;10287483;28;20298;-73
2020/12/10 04:03:04;;;;;;;18.27;16.37;;;5.90;47.00;;;;;;10274958;28;20234;-73
2020/12/10 04:08:06;;;;;;;19.23;16.67;;;5.90;46.80;;;;;;10275968;28;20224;-73
2020/12/10 04:13:09;;;;;;;21.53;17.90;;;5.90;46.70;;;;;;10280830;28;20227;-74
2020/12/10 04:18:12;;;;;;;21.23;17.30;;;5.90;46.70;;;;;;10278950;28;20224;-74
2020/12/10 04:23:14;;;;;;;20.87;17.93;;;5.90;46.80;;;;;;10287415;28;20232;-74
2020/12/10 04:28:17;;;;;;;21.07;17.30;;;5.90;46.80;;;;;;10284207;28;20238;-73
2020/12/10 04:33:21;;;;;;;19.80;16.07;;;5.90;47.00;;;;;;10279762;28;20243;-73
2020/12/10 04:38:23;;;;;;;20.87;17.77;;;5.90;46.90;;;;;;10278330;28;20224;-73
2020/12/10 04:43:26;;;;;;;22.70;18.00;;;5.90;46.90;;;;;;10267419;28;20628;-73
2020/12/10 04:48:31;;;;;;;23.53;18.23;;;6.00;46.90;;;;;;10278238;28;20318;-73
2020/12/10 04:53:34;;;;;;;24.43;18.57;;;6.00;46.90;;;;;;10264544;28;20227;-73
2020/12/10 04:58:37;;;;;;;25.30;19.03;;;6.00;46.90;;;;;;10284865;28;20279;-73
2020/12/10 05:03:39;;;;;;;27.53;21.80;;;6.00;46.80;;;;;;10266108;28;20581;-73
2020/12/10 05:08:44;;;;;;;26.73;21.53;;;6.00;46.90;;;;;;10270863;28;20652;-74
2020/12/10 05:13:53;;;;;;;28.83;23.17;;;6.00;46.90;;;;;;10269477;28;20232;-73
2020/12/10 05:18:55;;;;;;;21.47;16.70;;;6.10;47.00;;;;;;10268664;28;20247;-73
2020/12/10 05:23:58;;;;;;;25.33;19.30;;;6.10;47.00;;;;;;10276878;28;20714;-74
2020/12/10 05:29:01;;;;;;;25.30;19.03;;;6.10;47.00;;;;;;10275465;28;21016;-73
2020/12/10 05:34:03;;;;;;;25.67;19.83;;;6.20;46.90;;;;;;10271680;28;20710;-73
2020/12/10 05:39:08;;;;;;;28.80;24.13;;;6.20;47.00;;;;;;10272594;28;20227;-74
2020/12/10 05:44:15;;;;;;;27.13;20.50;;;6.20;46.90;;;;;;10276978;28;20232;-73
2020/12/10 05:49:17;;;;;;;22.03;17.07;;;6.10;46.70;;;;;;10282866;28;20236;-73
2020/12/10 05:54:20;;;;;;;20.40;17.17;;;6.10;46.70;;;;;;10285236;28;20227;-73
2020/12/10 05:59:24;;;;;;;18.80;14.33;;;6.10;46.90;;;;;;10271139;28;20232;-72
2020/12/10 06:04:27;;;;;;;24.23;18.37;;;6.10;47.00;;;;;;10273853;28;20228;-73
2020/12/10 06:09:30;;;;;;;22.73;18.10;;;6.10;46.90;;;;;;10274503;28;20311;-73
2020/12/10 06:14:49;;;;;;;19.13;15.23;;;6.20;46.90;;;;;;10269537;28;20586;-72
2020/12/10 06:19:51;;;;;;;23.13;18.20;;;6.20;46.90;;;;;;10272286;28;20224;-73
2020/12/10 06:24:54;;;;;;;23.30;16.23;;;6.20;46.90;;;;;;10274730;28;20594;-73
2020/12/10 06:30:19;;;;;;;22.10;17.83;;;6.20;46.90;;;;;;10282830;28;20307;-72
2020/12/10 06:35:28;;;;;;;21.50;16.60;;;6.20;47.20;;;;;;10274398;28;20239;-73
2020/12/10 06:40:33;;;;;;;23.80;19.00;;;6.20;47.00;;;;;;10271071;28;20659;-73
2020/12/10 06:45:38;;;;;;;26.27;21.13;;;6.20;46.90;;;;;;10262316;28;20303;-72
2020/12/10 06:50:41;;;;;;;23.80;17.50;;;6.30;47.00;;;;;;10275486;28;20224;-72
2020/12/10 06:56:08;;;;;;;22.83;17.50;;;6.30;46.90;;;;;;10272881;28;20232;-73
2020/12/10 07:01:24;;;;;;;23.23;17.77;;;6.30;47.00;;;;;;10277388;28;20308;-73
2020/12/10 07:06:27;;;;;;;23.57;18.50;;;6.30;46.90;;;;;;10279896;28;20259;-72
2020/12/10 07:11:31;;;;;;;22.50;18.23;;;6.40;46.80;;;;;;10262044;28;20224;-73
2020/12/10 07:16:34;;;;;;;22.40;17.33;;;6.40;46.90;;;;;;10275270;28;20227;-72
2020/12/10 07:21:38;;;;;;;23.07;17.60;;;6.40;46.70;;;;;;10284139;28;20239;-73
2020/12/10 07:26:42;;;;;;;19.87;14.63;;;6.40;46.80;;;;;;10282004;28;20220;-73
2020/12/10 07:31:45;;;;;;;21.17;16.10;;;6.40;46.80;;;;;;10280803;28;20235;-70
2020/12/10 07:36:50;;;;;;;20.10;16.50;;;6.40;46.80;;;;;;10280319;28;20235;-70
2020/12/10 07:41:52;;;;;;;20.07;14.87;;;6.40;46.80;;;;;;10279113;28;20231;-70
2020/12/10 07:46:56;;;;;;;17.40;14.33;;;6.40;46.80;;;;;;10271176;28;20238;-70
2020/12/10 07:52:02;;;;;;;18.03;14.77;;;6.40;46.90;;;;;;10264339;28;20235;-70
2020/12/10 07:57:11;;;;;;;23.17;18.33;;;6.40;46.80;;;;;;10274411;28;20228;-70
2020/12/10 08:02:21;;;;;;;23.20;18.53;;;6.40;46.80;;;;;;10258519;28;20266;-70
2020/12/10 08:07:23;;;;;;;21.30;16.43;;;6.40;46.70;;;;;;10277524;28;20251;-71
2020/12/10 08:12:26;;;;;;;21.43;17.40;;;6.50;46.80;;;;;;10260513;28;20607;-70
2020/12/10 08:17:31;;;;;;;21.20;16.77;;;6.40;46.70;;;;;;10276509;28;20252;-70
2020/12/10 08:22:33;;;;;;;24.90;18.40;;;6.50;46.70;;;;;;10275075;28;20234;-70
2020/12/10 08:27:36;;;;;;;26.23;19.13;;;6.50;46.60;;;;;;10265016;28;20712;-71
2020/12/10 08:32:51;;;;;;;24.93;18.40;;;6.50;46.50;;;;;;10270570;28;20235;-71
2020/12/10 08:37:53;;;;;;;24.37;18.27;;;6.40;46.60;;;;;;10264241;28;20318;-70
2020/12/10 08:42:56;;;;;;;22.63;17.50;;;6.40;46.50;;;;;;10283459;28;20738;-70
2020/12/10 08:48:00;;;;;;;22.43;17.50;;;6.40;46.50;;;;;;10274143;28;20767;-70
2020/12/10 08:53:04;;;;;;;25.83;16.93;;;6.30;46.50;;;;;;10256141;28;611531;-70
2020/12/10 08:58:07;;;;;;;28.43;18.97;;;6.30;46.50;;;;;;10271728;28;20330;-70
2020/12/10 09:03:10;;;;;;;30.20;19.87;;;6.30;46.40;;;;;;10282144;28;20591;-70
2020/12/10 09:08:13;;;;;;;28.60;18.80;;;6.30;46.50;;;;;;10269941;28;20717;-70
2020/12/10 09:13:15;;;;;;;29.80;21.47;;;6.30;46.50;;;;;;10274849;28;20242;-70
2020/12/10 09:18:19;;;;;;;29.03;20.73;;;6.30;46.70;;;;;;10272172;28;20722;-70
2020/12/10 09:23:21;;;;;;;26.70;19.07;;;6.30;46.80;;;;;;10260617;28;20367;-70
2020/12/10 09:28:23;;;;;;;25.83;18.77;;;6.30;46.80;;;;;;10265683;28;20688;-70
2020/12/10 09:33:27;;;;;;;24.27;18.70;;;6.30;46.90;;;;;;10265368;28;20238;-70
2020/12/10 09:38:29;;;;;;;23.43;18.00;;;6.40;46.80;;;;;;10262376;28;20595;-70
2020/12/10 09:43:31;;;;;;;22.50;17.87;;;6.40;46.80;;;;;;10270921;28;20227;-70
2020/12/10 09:48:35;;;;;;;25.53;18.73;;;6.40;46.80;;;;;;10274549;28;20252;-70
2020/12/10 09:53:40;;;;;;;22.43;16.07;;;6.40;47.50;;;;;;10272012;28;20224;-70
2020/12/10 09:58:42;;;;;;;24.33;18.83;;;6.40;46.80;;;;;;10267673;28;20323;-70
2020/12/10 10:03:45;;;;;;;23.97;18.27;;;6.50;46.80;;;;;;10270412;28;20307;-70
2020/12/10 10:08:47;;;;;;;25.40;18.90;;;6.50;46.70;;;;;;10270350;28;20232;-70
2020/12/10 10:13:50;;;;;;;26.73;19.07;;;6.50;46.70;;;;;;10270906;28;20308;-70
2020/12/10 10:18:53;;;;;;;28.03;18.67;;;6.50;46.70;;;;;;10269895;28;20238;-70
2020/12/10 10:23:55;;;;;;;29.67;20.43;;;6.50;46.70;;;;;;10277422;28;20225;-70
2020/12/10 10:28:59;;;;;;;31.37;20.70;;;6.50;46.70;;;;;;10265956;28;20231;-69
2020/12/10 10:34:02;;;;;;;26.30;18.17;;;6.60;47.20;;;;;;10279276;28;20224;-70
2020/12/10 10:39:05;;;;;;;25.90;19.27;;;6.60;47.00;;;;;;10287195;28;20695;-69
2020/12/10 10:44:07;;;;;;;26.73;19.53;;;6.60;46.90;;;;;;10273575;28;20231;-70
2020/12/10 10:49:12;;;;;;;26.60;17.17;;;6.60;46.70;;;;;;10276276;28;20247;-69
2020/12/10 10:54:15;;;;;;;24.77;17.47;;;6.60;46.80;;;;;;10281307;28;20230;-69
2020/12/10 10:59:17;;;;;;;25.23;19.03;;;6.60;46.70;;;;;;10267287;28;20323;-69
2020/12/10 11:04:20;;;;;;;27.37;19.00;;;6.60;46.50;;;;;;10279057;28;20248;-69
2020/12/10 11:09:22;;;;;;;26.60;18.70;;;6.60;46.50;;;;;;10283733;28;20242;-69
2020/12/10 11:14:24;;;;;;;25.30;18.40;;;6.60;46.50;;;;;;10274944;28;20223;-69
2020/12/10 11:19:28;;;;;;;21.17;16.07;;;6.60;46.60;;;;;;10271546;28;20603;-69
2020/12/10 11:24:30;;;;;;;21.70;16.53;;;6.60;46.60;;;;;;10272932;28;20645;-69
2020/12/10 11:29:33;;;;;;;24.10;17.83;;;6.60;46.70;;;;;;10263436;28;20228;-69
2020/12/10 11:34:36;;;;;;;24.10;18.20;;;6.60;46.50;;;;;;10270002;28;20246;-69
2020/12/10 11:39:38;;;;;;;25.33;19.50;;;6.70;46.50;;;;;;10271654;28;20912;-69
2020/12/10 11:44:42;;;;;;;25.90;18.73;;;6.60;46.30;;;;;;10270931;28;20310;-69
2020/12/10 11:49:45;;;;;;;26.13;19.20;;;6.60;46.40;;;;;;10264464;28;20620;-69
2020/12/10 11:54:47;;;;;;;26.93;19.80;;;6.60;46.50;;;;;;10267815;28;20236;-69
2020/12/10 11:59:49;;;;;;;26.07;18.67;;;6.60;46.50;;;;;;10265393;28;20238;-69
2020/12/10 12:04:52;;;;;;;24.77;19.50;;;6.60;46.60;;;;;;10268233;28;20228;-69
2020/12/10 12:09:55;;;;;;;22.37;17.50;;;6.60;46.50;;;;;;10274091;28;20220;-69
2020/12/10 12:14:57;;;;;;;26.10;20.63;;;6.60;46.50;;;;;;10274321;28;20231;-70
2020/12/10 12:20:00;;;;;;;23.67;18.17;;;6.60;46.50;;;;;;10271496;28;20243;-69
2020/12/10 12:25:02;;;;;;;25.47;19.90;;;6.60;46.50;;;;;;10268094;28;20216;-70
2020/12/10 12:30:05;;;;;;;27.43;19.97;;;6.60;46.50;;;;;;10272817;28;20257;-69
2020/12/10 12:35:08;;;;;;;25.60;18.90;;;6.60;46.50;;;;;;10263840;28;20607;-69
2020/12/10 12:40:10;;;;;;;23.37;17.67;;;6.60;46.50;;;;;;10269123;28;20254;-69
2020/12/10 12:45:13;;;;;;;23.13;17.23;;;6.60;46.50;;;;;;10270722;28;20228;-69
2020/12/10 12:50:16;;;;;;;26.83;19.90;;;6.60;46.60;;;;;;10271406;28;20239;-69
2020/12/10 12:55:18;;;;;;;24.70;18.00;;;6.70;46.70;;;;;;10274976;28;20262;-70
2020/12/10 13:00:20;;;;;;;23.43;17.53;;;6.70;46.70;;;;;;10258121;28;20236;-69
2020/12/10 13:05:23;;;;;;;23.03;17.70;;;6.70;46.70;;;;;;10265061;28;20307;-69
2020/12/10 13:10:26;;;;;;;23.80;18.00;;;6.80;46.70;;;;;;10257915;28;20234;-69
2020/12/10 13:15:28;;;;;;;22.03;15.90;;;6.70;46.40;;;;;;10259396;28;20256;-69
2020/12/10 13:20:31;;;;;;;21.50;15.37;;;6.70;46.30;;;;;;10267800;28;20250;-70
2020/12/10 13:25:33;;;;;;;20.63;15.30;;;6.70;46.40;;;;;;10278270;28;20646;-70
2020/12/10 13:30:35;;;;;;;19.30;14.97;;;6.60;46.40;;;;;;10261861;28;20228;-70
2020/12/10 13:35:39;;;;;;;18.30;14.37;;;6.60;46.50;;;;;;10256533;28;20235;-70
2020/12/10 13:40:42;;;;;;;22.97;15.53;;;6.60;46.70;;;;;;10262284;28;20228;-70
2020/12/10 13:45:44;;;;;;;18.53;14.73;;;6.60;46.50;;;;;;10264145;28;20235;-70
2020/12/10 13:50:47;;;;;;;18.43;13.93;;;6.60;46.60;;;;;;10256081;28;20228;-71
2020/12/10 13:55:50;;;;;;;19.20;13.20;;;6.60;46.60;;;;;;10261211;28;20242;-70
2020/12/10 14:00:52;;;;;;;17.43;13.17;;;6.70;46.70;;;;;;10248625;28;20224;-70
2020/12/10 14:05:59;;;;;;;19.13;14.47;;;6.70;46.70;;;;;;10257974;28;20242;-70
2020/12/10 14:11:04;;;;;;;17.73;13.60;;;6.70;46.70;;;;;;10260585;28;20217;-71
2020/12/10 14:16:06;;;;;;;17.77;13.90;;;6.70;46.90;;;;;;10258582;28;20242;-70
2020/12/10 14:21:09;;;;;;;18.20;14.03;;;6.70;46.70;;;;;;10264274;28;20229;-70
2020/12/10 14:26:11;;;;;;;18.03;13.63;;;6.80;46.70;;;;;;10264681;28;20253;-70
2020/12/10 14:31:13;;;;;;;18.43;14.23;;;6.80;46.80;;;;;;10259419;28;20637;-69
2020/12/10 14:36:17;;;;;;;20.63;14.60;;;6.80;46.80;;;;;;10264961;28;20240;-70
2020/12/10 14:41:19;;;;;;;17.77;14.73;;;6.80;46.80;;;;;;10258856;28;20239;-70
2020/12/10 14:46:22;;;;;;;20.23;15.37;;;6.90;46.90;;;;;;10260358;28;20236;-70
2020/12/10 14:51:25;;;;;;;17.67;13.37;;;6.90;46.70;;;;;;10255733;28;20291;-69
2020/12/10 14:56:28;;;;;;;16.77;13.30;;;7.00;46.80;;;;;;10270994;28;20233;-69
2020/12/10 15:01:30;;;;;;;16.90;12.93;;;6.90;46.70;;;;;;10254248;28;20319;-70
2020/12/10 15:06:34;;;;;;;14.37;11.50;;;7.00;46.70;;;;;;10263805;28;20322;-70
2020/12/10 15:11:36;;;;;;;16.73;13.57;;;6.90;46.60;;;;;;10257953;28;20238;-70
2020/12/10 15:16:39;;;;;;;17.90;14.37;;;7.00;46.70;;;;;;10259146;28;20235;-70
2020/12/10 15:21:42;;;;;;;15.00;11.93;;;7.00;46.70;;;;;;10273693;28;20235;-69
2020/12/10 15:26:45;;;;;;;12.50;9.90;;;7.00;46.70;;;;;;10268421;28;20228;-69
2020/12/10 15:31:47;;;;;;;11.73;9.70;;;7.00;46.80;;;;;;10271812;28;20233;-69
2020/12/10 15:36:55;;;;;;;14.33;12.03;;;7.00;46.90;;;;;;10275496;28;20231;-69
2020/12/10 15:41:58;;;;;;;11.40;9.33;;;7.10;46.90;;;;;;10263559;28;20238;-69
2020/12/10 15:47:00;;;;;;;15.33;12.17;;;7.10;46.90;;;;;;10275934;28;20224;-73
2020/12/10 15:52:04;;;;;;;13.63;10.70;;;7.10;46.90;;;;;;10270028;28;20235;-72
2020/12/10 15:57:06;;;;;;;16.13;11.67;;;7.10;46.80;;;;;;10265253;28;20228;-73
2020/12/10 16:02:09;;;;;;;14.47;11.77;;;7.10;46.80;;;;;;10272750;28;20576;-72
2020/12/10 16:07:12;;;;;;;14.23;11.27;;;7.20;46.80;;;;;;10267130;28;20228;-73
2020/12/10 16:12:15;;;;;;;13.50;11.57;;;7.20;46.70;;;;;;10282950;28;20269;-73
2020/12/10 16:17:17;;;;;;;15.27;11.93;;;7.20;46.70;;;;;;10276171;28;20238;-73
2020/12/10 16:22:20;;;;;;;14.80;12.53;;;7.20;47.40;;;;;;10278434;28;20236;-74
2020/12/10 16:27:22;;;;;;;14.80;11.87;;;7.20;46.70;;;;;;10274383;28;20346;-74
2020/12/10 16:32:25;;;;;;;13.93;11.03;;;7.20;46.70;;;;;;10272685;28;20577;-74
2020/12/10 16:37:28;;;;;;;13.50;11.43;;;7.20;46.70;;;;;;10280751;28;20255;-74
2020/12/10 16:42:31;;;;;;;11.53;8.90;;;7.20;46.60;;;;;;10258130;28;20238;-74
2020/12/10 16:47:33;;;;;;;13.90;11.67;;;7.20;46.50;;;;;;10279290;28;20592;-74
2020/12/10 16:52:36;;;;;;;13.67;11.37;;;7.10;46.40;;;;;;10267942;28;20235;-74
2020/12/10 16:57:38;;;;;;;13.03;10.10;;;7.20;46.50;;;;;;10268640;28;20736;-74
2020/12/10 17:02:41;;;;;;;10.63;9.23;;;7.20;46.70;;;;;;10265635;28;20239;-74
2020/12/10 17:07:44;;;;;;;13.47;10.37;;;7.20;46.60;;;;;;10255772;28;20291;-74
2020/12/10 17:12:46;;;;;;;9.70;8.33;;;7.20;46.50;;;;;;10264619;28;20241;-74
2020/12/10 17:17:48;;;;;;;12.13;9.80;;;7.20;46.60;;;;;;10264539;28;20231;-74
2020/12/10 17:22:51;;;;;;;10.77;9.03;;;7.20;46.50;;;;;;10267824;28;20228;-74
2020/12/10 17:27:53;;;;;;;13.20;10.90;;;7.20;46.60;;;;;;10274745;28;20685;-74
2020/12/10 17:32:56;;;;;;;13.77;11.40;;;7.20;46.60;;;;;;10264081;28;20230;-73
2020/12/10 17:37:59;;;;;;;14.43;11.90;;;7.20;46.70;;;;;;10260719;28;20228;-73
2020/12/10 17:43:01;;;;;;;13.17;10.57;;;7.20;46.70;;;;;;10261626;28;20231;-73
2020/12/10 17:48:03;;;;;;;13.70;11.17;;;7.20;46.60;;;;;;10262562;28;20591;-73
2020/12/10 17:53:07;;;;;;;14.17;10.57;;;7.20;46.60;;;;;;10269539;28;20231;-71
2020/12/10 17:58:09;;;;;;;13.27;10.23;;;7.30;46.80;;;;;;10257603;28;20232;-71
2020/12/10 18:03:11;;;;;;;15.10;11.43;;;7.30;46.70;;;;;;10266480;28;20243;-71
2020/12/10 18:08:14;;;;;;;16.30;10.83;;;7.30;46.60;;;;;;10264054;28;20235;-71
2020/12/10 18:13:17;;;;;;;16.07;12.23;;;7.30;46.50;;;;;;10268967;28;20720;-71
2020/12/10 18:18:19;;;;;;;24.07;16.47;;;7.40;46.70;;;;;;10272511;28;20294;-71
2020/12/10 18:23:23;;;;;;;27.60;16.00;;;7.40;46.50;;;;;;10270087;28;20604;-71
2020/12/10 18:28:25;;;;;;;21.47;13.73;;;7.40;46.10;;;;;;10274422;28;20220;-71
2020/12/10 18:33:27;;;;;;;24.13;15.17;;;7.30;46.20;;;;;;10264722;28;20227;-71
2020/12/10 18:38:30;;;;;;;24.67;15.50;;;7.20;46.40;;;;;;10261109;28;20240;-71
2020/12/10 18:43:36;;;;;;;24.53;14.70;;;7.20;46.50;;;;;;10262497;28;20234;-71
2020/12/10 18:48:39;;;;;;;23.43;15.43;;;7.20;46.70;;;;;;10263703;28;20230;-71
2020/12/10 18:53:42;;;;;;;29.27;19.80;;;7.20;46.80;;;;;;10262002;28;20220;-71
2020/12/10 18:58:44;;;;;;;29.93;17.67;;;7.20;46.70;;;;;;10268516;28;20224;-71
2020/12/10 19:03:46;;;;;;;29.17;17.93;;;7.30;46.70;;;;;;10268321;28;20232;-70
2020/12/10 19:08:50;;;;;;;27.00;16.53;;;7.30;46.70;;;;;;10262368;28;20228;-70
2020/12/10 19:13:53;;;;;;;29.50;16.97;;;7.30;46.60;;;;;;10278172;28;20216;-71
2020/12/10 19:18:55;;;;;;;26.70;17.93;;;7.30;46.50;;;;;;10270630;28;20231;-70
2020/12/10 19:23:58;;;;;;;25.37;16.87;;;7.30;46.60;;;;;;10270237;28;20235;-70
2020/12/10 19:29:01;;;;;;;22.87;16.37;;;7.30;46.60;;;;;;10267621;28;20220;-70
2020/12/10 19:34:03;;;;;;;29.00;18.93;;;7.30;46.50;;;;;;10282056;28;20598;-71
2020/12/10 19:39:06;;;;;;;24.57;16.57;;;7.30;46.50;;;;;;10270913;28;20225;-70
2020/12/10 19:44:09;;;;;;;34.17;20.03;;;7.30;46.40;;;;;;10275645;28;20224;-71
2020/12/10 19:49:12;;;;;;;27.83;17.80;;;7.30;46.60;;;;;;10276507;28;20315;-70
2020/12/10 19:54:15;;;;;;;29.07;19.13;;;7.30;46.70;;;;;;10264378;28;20735;-71
2020/12/10 19:59:17;;;;;;;29.87;19.37;;;7.30;46.70;;;;;;10277941;28;20822;-70
2020/12/10 20:04:19;;;;;;;28.83;18.83;;;7.30;46.40;;;;;;10271279;28;20318;-70
2020/12/10 20:09:23;;;;;;;31.30;20.40;;;7.30;46.20;;;;;;10280255;28;20828;-70
2020/12/10 20:14:25;;;;;;;28.53;19.10;;;7.20;46.00;;;;;;10267917;28;20224;-71
2020/12/10 20:19:28;;;;;;;32.07;20.37;;;7.10;46.10;;;;;;10268479;28;20640;-70
2020/12/10 20:24:32;;;;;;;27.80;18.47;;;7.00;46.20;;;;;;10272730;28;20306;-69
2020/12/10 20:29:41;;;;;;;30.97;20.10;;;7.00;46.30;;;;;;10269232;28;20355;-69
2020/12/10 20:34:44;;;;;;;29.20;19.77;;;6.90;46.30;;;;;;10267000;28;20700;-69
2020/12/10 20:39:47;;;;;;;29.63;18.97;;;6.90;46.40;;;;;;10247899;28;20225;-69
2020/12/10 20:44:49;;;;;;;31.27;19.53;;;6.90;46.70;;;;;;10270107;28;20753;-69
2020/12/10 20:49:51;;;;;;;32.67;20.57;;;6.90;46.70;;;;;;10267045;28;20232;-69
2020/12/10 20:54:54;;;;;;;32.50;20.27;;;6.90;46.70;;;;;;10266754;28;20750;-69
2020/12/10 20:59:57;;;;;;;30.77;19.03;;;6.80;46.70;;;;;;10258253;28;20228;-70
2020/12/10 21:05:02;;;;;;;29.67;18.60;;;6.80;46.50;;;;;;10263522;28;20230;-70
2020/12/10 21:10:05;;;;;;;31.47;20.07;;;6.80;46.60;;;;;;10263216;28;20605;-69
2020/12/10 21:15:07;;;;;;;24.50;15.77;;;6.70;46.70;;;;;;10267775;28;20223;-69
2020/12/10 21:20:09;;;;;;;28.17;18.60;;;6.70;46.70;;;;;;10254308;28;20228;-69
2020/12/10 21:25:12;;;;;;;34.50;21.30;;;6.80;47.00;;;;;;10266994;28;20254;-69
2020/12/10 21:30:14;;;;;;;27.17;19.07;;;6.80;47.00;;;;;;10270679;28;20254;-69
2020/12/10 21:35:16;;;;;;;28.90;19.13;;;6.80;47.00;;;;;;10260916;28;20235;-68
2020/12/10 21:40:20;;;;;;;29.17;18.40;;;6.90;47.10;;;;;;10260384;28;20239;-68
2020/12/10 21:45:22;;;;;;;25.67;15.47;;;6.90;46.90;;;;;;10265797;28;20318;-68
2020/12/10 21:50:24;;;;;;;30.63;18.27;;;6.90;46.90;;;;;;10260651;28;20688;-68
2020/12/10 21:55:27;;;;;;;30.43;16.70;;;6.90;46.80;;;;;;10263973;28;20275;-68
2020/12/10 22:00:29;;;;;;;26.43;16.73;;;6.90;46.80;;;;;;10260305;28;20237;-68
2020/12/10 22:05:32;;;;;;;27.60;15.97;;;6.80;46.70;;;;;;10265994;28;20230;-68
2020/12/10 22:10:35;;;;;;;30.17;17.70;;;6.80;46.70;;;;;;10258413;28;20232;-68
2020/12/10 22:15:37;;;;;;;30.03;17.20;;;6.80;46.80;;;;;;10263687;28;20231;-68
2020/12/10 22:20:40;;;;;;;32.60;17.33;;;6.70;46.70;;;;;;10261426;28;20239;-68
2020/12/10 22:25:43;;;;;;;33.03;18.60;;;6.60;46.80;;;;;;10266168;28;20228;-68
2020/12/10 22:30:49;;;;;;;29.57;17.43;;;6.60;46.90;;;;;;10273058;28;20226;-68
2020/12/10 22:35:52;;;;;;;30.10;16.33;;;6.60;47.00;;;;;;10266906;28;20339;-68
2020/12/10 22:40:55;;;;;;;31.70;18.70;;;6.50;47.00;;;;;;10276100;28;20223;-68
2020/12/10 22:45:58;;;;;;;32.50;18.43;;;6.50;47.20;;;;;;10265932;28;20307;-68
2020/12/10 22:51:02;;;;;;;31.80;18.00;;;6.50;47.10;;;;;;10269314;28;20228;-68
2020/12/10 22:56:08;;;;;;;29.17;16.77;;;6.50;47.00;;;;;;10272605;28;20250;-68
2020/12/10 23:01:12;;;;;;;28.07;16.83;;;6.50;47.10;;;;;;10281338;28;20238;-68
2020/12/10 23:06:16;;;;;;;29.77;17.63;;;6.50;47.30;;;;;;10274337;28;20234;-68
2020/12/10 23:11:19;;;;;;;29.73;17.47;;;6.50;47.40;;;;;;10277227;28;20238;-68
2020/12/10 23:16:21;;;;;;;29.70;17.50;;;6.50;47.40;;;;;;10269232;28;20300;-68
2020/12/10 23:21:25;;;;;;;26.47;15.83;;;6.50;47.30;;;;;;10273533;28;20232;-68
2020/12/10 23:26:28;;;;;;;32.23;18.93;;;6.60;47.40;;;;;;10268935;28;20230;-69
2020/12/10 23:31:31;;;;;;;28.93;16.50;;;6.60;47.30;;;;;;10267972;28;20251;-68
2020/12/10 23:36:36;;;;;;;29.40;16.97;;;6.60;47.30;;;;;;10282644;28;20223;-69
2020/12/10 23:41:40;;;;;;;26.27;15.50;;;6.60;47.30;;;;;;10277440;28;20723;-68
2020/12/10 23:46:42;;;;;;;30.83;18.37;;;6.70;47.40;;;;;;10281294;28;20656;-68
2020/12/10 23:51:44;;;;;;;27.40;16.83;;;6.70;47.20;;;;;;10282961;28;20231;-68
2020/12/10 23:56:47;;;;;;;29.43;17.63;;;6.80;47.20;;;;;;10278740;28;20790;-68
